Time;durP1;ratioP1;P1;durP2;ratioP2;P2;SDS_P1;SDS_P2;PMS_P1;PMS_P2;Temp;Humidity;BMP_temperature;BMP_pressure;BME280_temperature;BME280_humidity;BME280_pressure;Samples;Min_cycle;Max_cycle;Signal;HPM_P1;HPM_P2
2022/07/13 00:01:52;;;;;;;1.80;1.20;;;;;;;19.50;64.56;101440.02;108302;1277;71544;-82
2022/07/13 00:04:19;;;;;;;2.00;1.20;;;;;;;19.50;64.57;101441.92;108337;1277;73040;-83
2022/07/13 00:06:46;;;;;;;3.90;1.30;;;;;;;19.48;64.68;101444.99;108423;1276;62326;-83
2022/07/13 00:09:13;;;;;;;2.30;1.30;;;;;;;19.47;64.77;101447.98;108449;1277;61063;-83
2022/07/13 00:11:40;;;;;;;2.50;1.30;;;;;;;19.48;64.89;101455.77;108341;1276;75868;-83
2022/07/13 00:14:07;;;;;;;4.30;1.50;;;;;;;19.48;64.95;101454.93;108267;1276;73021;-83
2022/07/13 00:16:33;;;;;;;1.90;1.50;;;;;;;19.47;65.13;101454.70;108266;1276;73627;-82
2022/07/13 00:19:01;;;;;;;2.50;1.60;;;;;;;19.44;65.40;101452.39;108228;1276;61608;-83
2022/07/13 00:21:27;;;;;;;2.70;1.50;;;;;;;19.43;65.48;101449.91;108314;1276;59911;-82
2022/07/13 00:23:58;;;;;;;2.80;1.60;;;;;;;19.41;65.53;101447.40;108392;1276;76298;-83
2022/07/13 00:26:24;;;;;;;2.40;1.50;;;;;;;19.41;65.60;101452.48;108480;1276;71447;-83
2022/07/13 00:28:52;;;;;;;3.90;1.50;;;;;;;19.38;65.80;101448.21;108416;1276;72955;-83
2022/07/13 00:31:19;;;;;;;2.70;1.30;;;;;;;19.38;65.80;101436.80;108305;1275;62353;-82
2022/07/13 00:33:46;;;;;;;4.70;1.40;;;;;;;19.39;66.01;101425.39;108226;1276;62025;-83
2022/07/13 00:36:13;;;;;;;3.20;1.40;;;;;;;19.41;66.22;101419.25;108007;1275;74910;-83
2022/07/13 00:38:40;;;;;;;2.90;1.10;;;;;;;19.44;66.41;101417.49;107920;1277;72622;-83
2022/07/13 00:41:08;;;;;;;2.10;1.10;;;;;;;19.47;66.44;101412.05;108060;1277;73107;-83
2022/07/13 00:43:35;;;;;;;3.20;1.20;;;;;;;19.48;66.91;101406.63;108179;1275;62032;-83
2022/07/13 00:46:02;;;;;;;1.50;0.90;;;;;;;19.49;66.89;101405.25;108046;1277;61631;-82
2022/07/13 00:48:29;;;;;;;2.40;1.10;;;;;;;19.50;67.10;101401.86;108020;1277;74973;-83
2022/07/13 00:50:57;;;;;;;2.00;1.00;;;;;;;19.52;66.96;101401.21;108089;1277;71394;-83
2022/07/13 00:53:25;;;;;;;2.20;1.10;;;;;;;19.53;66.94;101397.23;108031;1276;72969;-83
2022/07/13 00:55:52;;;;;;;2.30;1.60;;;;;;;19.56;66.70;101399.42;108266;1275;62467;-83
2022/07/13 00:58:18;;;;;;;2.20;1.10;;;;;;;19.60;66.53;101393.31;108039;1277;61659;-83
2022/07/13 01:00:45;;;;;;;2.90;1.10;;;;;;;19.63;66.36;101382.48;108126;1276;73901;-86
2022/07/13 01:03:12;;;;;;;3.50;1.00;;;;;;;19.65;66.36;101373.39;108137;1274;71253;-83
2022/07/13 01:05:40;;;;;;;1.80;1.10;;;;;;;19.67;66.14;101367.95;108279;1276;73921;-83
2022/07/13 01:08:07;;;;;;;2.30;1.00;;;;;;;19.67;66.20;101363.86;108273;1277;62160;-84
2022/07/13 01:10:34;;;;;;;2.20;1.10;;;;;;;19.66;66.10;101360.67;108495;1276;60812;-82
2022/07/13 01:13:01;;;;;;;2.30;1.20;;;;;;;19.65;66.20;101363.20;108398;1275;76739;-83
2022/07/13 01:15:28;;;;;;;1.70;1.00;;;;;;;19.64;66.15;101365.32;108253;1276;71099;-83
2022/07/13 01:17:56;;;;;;;2.60;1.10;;;;;;;19.63;66.01;101362.21;108204;1276;72913;-83
2022/07/13 01:20:24;;;;;;;2.60;1.10;;;;;;;19.62;66.10;101358.59;107818;1276;394620;-83
2022/07/13 01:22:52;;;;;;;2.00;1.00;;;;;;;19.62;65.94;101353.79;107988;1277;59734;-83
2022/07/13 01:25:21;;;;;;;1.60;1.00;;;;;;;19.60;66.04;101351.85;107929;1277;75069;-83
2022/07/13 01:27:49;;;;;;;2.40;1.10;;;;;;;19.61;65.95;101353.42;107721;1278;71496;-83
2022/07/13 01:30:16;;;;;;;2.10;1.00;;;;;;;19.61;65.93;101353.59;108145;1276;73322;-83
2022/07/13 01:32:50;;;;;;;1.60;0.80;;;;;;;19.60;65.84;101348.41;107913;1277;63291;-83
2022/07/13 01:35:21;;;;;;;2.00;1.20;;;;;;;19.60;65.65;101346.10;108162;1276;62042;-83
2022/07/13 01:37:48;;;;;;;1.60;1.00;;;;;;;19.61;65.64;101347.05;107677;1276;76295;-83
2022/07/13 01:40:15;;;;;;;2.40;0.90;;;;;;;19.61;65.45;101344.17;108149;1276;71501;-83
2022/07/13 01:42:49;;;;;;;2.10;0.90;;;;;;;19.61;65.51;101342.58;108115;1275;73063;-83
2022/07/13 01:45:19;;;;;;;1.50;0.80;;;;;;;19.59;65.27;101339.92;108136;1276;61149;-83
2022/07/13 01:47:47;;;;;;;2.20;1.00;;;;;;;19.59;65.19;101339.93;108132;1277;59439;-83
2022/07/13 01:50:16;;;;;;;2.30;1.10;;;;;;;19.60;65.27;101339.56;107830;1276;75834;-83
2022/07/13 01:52:43;;;;;;;2.90;1.10;;;;;;;19.59;65.14;101346.26;107812;1277;71473;-83
2022/07/13 01:55:11;;;;;;;3.10;1.00;;;;;;;19.57;65.13;101348.11;108102;1276;73662;-83
2022/07/13 01:57:38;;;;;;;2.00;1.10;;;;;;;19.56;65.20;101350.27;107909;1276;63089;-83
2022/07/13 02:00:19;;;;;;;2.30;0.90;;;;;;;19.54;65.14;101345.05;107768;1276;61694;-83
2022/07/13 02:02:47;;;;;;;2.10;1.00;;;;;;;19.55;65.06;101343.23;107812;1277;75134;-83
2022/07/13 02:05:15;;;;;;;2.20;0.90;;;;;;;19.55;65.07;101342.82;108118;1276;71731;-83
2022/07/13 02:07:42;;;;;;;2.00;0.90;;;;;;;19.56;64.96;101339.29;107880;1276;73145;-83
2022/07/13 02:10:11;;;;;;;1.50;0.90;;;;;;;19.57;64.73;101342.19;107867;1277;61608;-83
2022/07/13 02:12:38;;;;;;;2.40;0.90;;;;;;;19.59;64.74;101339.81;107921;1277;62209;-82
2022/07/13 02:15:07;;;;;;;1.90;0.90;;;;;;;19.61;64.66;101334.38;107898;1277;76040;-82
2022/07/13 02:17:34;;;;;;;2.10;0.80;;;;;;;19.63;64.54;101336.44;108116;1276;72706;-82
2022/07/13 02:20:02;;;;;;;2.40;0.90;;;;;;;19.64;64.47;101342.02;107846;1276;74169;-81
2022/07/13 02:22:40;;;;;;;2.70;1.00;;;;;;;19.62;64.60;101341.11;108063;1276;62103;-82
2022/07/13 02:25:07;;;;;;;2.80;1.00;;;;;;;19.63;64.54;101334.90;108087;1276;61397;-82
2022/07/13 02:27:35;;;;;;;2.00;0.90;;;;;;;19.63;64.55;101330.95;108151;1276;76419;-82
2022/07/13 02:30:02;;;;;;;2.60;0.80;;;;;;;19.66;64.42;101329.38;108122;1276;72779;-82
2022/07/13 02:32:29;;;;;;;2.60;0.90;;;;;;;19.67;64.51;101328.27;107868;1276;73218;-82
2022/07/13 02:34:56;;;;;;;1.10;0.70;;;;;;;19.68;64.34;101324.60;107791;1276;62040;-83
2022/07/13 02:37:24;;;;;;;3.40;1.00;;;;;;;19.67;64.26;101320.90;107967;1277;61417;-83
2022/07/13 02:39:53;;;;;;;2.50;1.00;;;;;;;19.67;64.37;101319.88;108165;1276;76037;-82
2022/07/13 02:42:19;;;;;;;2.50;1.00;;;;;;;19.66;64.39;101316.41;107976;1276;72972;-83
2022/07/13 02:44:47;;;;;;;1.80;0.90;;;;;;;19.63;64.52;101312.66;108137;1276;74880;-82
2022/07/13 02:47:13;;;;;;;2.80;0.90;;;;;;;19.61;64.65;101306.34;107956;1277;63079;-83
2022/07/13 02:49:41;;;;;;;2.30;1.00;;;;;;;19.60;64.65;101305.61;107653;1277;60291;-82
2022/07/13 02:52:08;;;;;;;1.30;0.80;;;;;;;19.57;64.84;101305.26;107821;1277;76018;-82
2022/07/13 02:54:35;;;;;;;2.10;1.00;;;;;;;19.54;64.81;101300.96;107747;1277;72565;-83
2022/07/13 02:57:02;;;;;;;1.80;0.90;;;;;;;19.54;64.91;101298.81;107858;1277;72949;-83
2022/07/13 02:59:33;;;;;;;1.50;0.90;;;;;;;19.54;65.03;101296.00;107864;1277;62808;-83
2022/07/13 03:02:00;;;;;;;2.20;1.00;;;;;;;19.54;64.91;101297.90;108087;1276;59591;-83
2022/07/13 03:04:27;;;;;;;1.80;0.80;;;;;;;19.54;64.93;101297.86;108123;1276;76286;-82
2022/07/13 03:06:54;;;;;;;1.80;1.00;;;;;;;19.54;65.00;101301.13;108104;1276;72321;-83
2022/07/13 03:09:21;;;;;;;2.70;1.00;;;;;;;19.54;64.97;101296.59;107787;1276;73442;-83
2022/07/13 03:11:48;;;;;;;1.60;1.00;;;;;;;19.54;64.93;101295.84;108031;1276;63516;-83
2022/07/13 03:14:16;;;;;;;2.30;0.90;;;;;;;19.54;64.83;101295.55;107850;1277;61306;-82
2022/07/13 03:16:43;;;;;;;2.50;0.80;;;;;;;19.56;64.62;101296.73;108076;1276;76044;-82
2022/07/13 03:19:11;;;;;;;1.70;0.70;;;;;;;19.60;64.41;101295.96;107915;1277;72242;-82
2022/07/13 03:21:38;;;;;;;2.70;0.70;;;;;;;19.63;64.19;101297.27;107847;1277;72690;-82
2022/07/13 03:24:05;;;;;;;1.30;0.90;;;;;;;19.67;64.09;101298.80;108082;1276;62379;-82
2022/07/13 03:26:31;;;;;;;1.40;0.90;;;;;;;19.71;63.78;101297.66;108060;1275;59954;-80
2022/07/13 03:28:58;;;;;;;2.80;0.90;;;;;;;19.74;63.48;101297.21;108076;1276;75479;-81
2022/07/13 03:31:26;;;;;;;2.20;0.90;;;;;;;19.79;63.49;101297.55;107841;1277;73814;-81
2022/07/13 03:33:54;;;;;;;2.20;0.90;;;;;;;19.83;63.30;101290.11;108059;1277;73951;-80
2022/07/13 03:36:21;;;;;;;1.50;0.90;;;;;;;19.86;63.07;101289.09;108079;1276;62912;-81
2022/07/13 03:38:48;;;;;;;1.90;0.80;;;;;;;19.90;62.95;101288.39;107908;1277;61879;-81
2022/07/13 03:41:15;;;;;;;2.40;0.80;;;;;;;19.94;62.80;101284.58;107731;1277;75630;-81
2022/07/13 03:43:42;;;;;;;1.70;1.00;;;;;;;19.96;62.65;101280.65;108124;1277;72574;-81
2022/07/13 03:46:09;;;;;;;2.10;1.00;;;;;;;19.99;62.57;101275.03;107823;1276;72979;-81
2022/07/13 03:48:36;;;;;;;2.40;1.10;;;;;;;20.02;62.41;101272.95;107888;1277;61393;-81
2022/07/13 03:51:07;;;;;;;1.40;0.80;;;;;;;20.04;62.44;101273.90;107871;1276;60162;-81
2022/07/13 03:53:34;;;;;;;1.60;0.90;;;;;;;20.07;62.35;101272.58;107755;1276;75765;-80
2022/07/13 03:56:02;;;;;;;1.90;0.90;;;;;;;20.09;62.25;101267.35;108088;1276;70853;-81
2022/07/13 03:58:29;;;;;;;1.30;0.80;;;;;;;20.10;62.44;101265.30;107897;1276;72836;-81
2022/07/13 04:00:55;;;;;;;1.80;0.90;;;;;;;20.12;62.43;101250.14;108074;1276;62091;-81
2022/07/13 04:03:22;;;;;;;2.20;1.00;;;;;;;20.14;62.50;101247.02;108077;1276;61325;-81
2022/07/13 04:05:49;;;;;;;1.90;0.90;;;;;;;20.14;62.42;101245.85;107862;1277;76065;-81
2022/07/13 04:08:17;;;;;;;1.80;0.90;;;;;;;20.14;62.53;101246.44;108087;1276;72382;-81
2022/07/13 04:10:44;;;;;;;2.20;0.90;;;;;;;20.12;62.47;101246.55;108100;1276;72897;-81
2022/07/13 04:13:11;;;;;;;2.10;0.90;;;;;;;20.10;62.76;101249.17;108100;1277;61816;-81
2022/07/13 04:15:39;;;;;;;2.30;1.00;;;;;;;20.07;62.93;101243.95;108099;1276;60403;-80
2022/07/13 04:18:06;;;;;;;1.90;1.00;;;;;;;20.04;63.14;101243.99;107861;1277;76661;-81
2022/07/13 04:20:33;;;;;;;3.60;1.00;;;;;;;20.03;63.26;101245.42;108075;1276;73087;-81
2022/07/13 04:23:00;;;;;;;2.40;1.00;;;;;;;20.05;63.19;101238.14;107874;1277;74154;-81
2022/07/13 04:25:27;;;;;;;2.20;0.80;;;;;;;20.09;63.26;101234.83;107813;1277;62897;-79
2022/07/13 04:27:54;;;;;;;2.00;1.00;;;;;;;20.14;63.05;101233.20;107825;1276;60615;-79
2022/07/13 04:30:27;;;;;;;4.10;1.00;;;;;;;20.20;63.02;101241.11;108185;1276;75097;-79
2022/07/13 04:33:01;;;;;;;2.40;1.00;;;;;;;20.24;62.98;101239.95;108093;1276;71628;-80
2022/07/13 04:35:29;;;;;;;1.90;0.90;;;;;;;20.27;62.87;101230.48;108442;1276;73135;-79
2022/07/13 04:38:05;;;;;;;1.50;0.90;;;;;;;20.33;62.77;101218.15;108330;1276;62331;-79
2022/07/13 04:40:35;;;;;;;1.80;1.00;;;;;;;20.39;62.67;101222.86;108232;1276;61718;-79
2022/07/13 04:43:08;;;;;;;3.30;1.00;;;;;;;20.41;62.55;101225.77;108286;1276;74927;-79
2022/07/13 04:45:36;;;;;;;1.90;0.90;;;;;;;20.43;62.53;101223.54;108340;1276;72465;-80
2022/07/13 04:48:03;;;;;;;1.60;0.90;;;;;;;20.45;62.60;101226.34;108346;1276;71647;-79
2022/07/13 04:50:32;;;;;;;2.60;1.00;;;;;;;20.46;62.65;101229.14;108186;1276;62000;-79
2022/07/13 04:52:59;;;;;;;2.80;1.10;;;;;;;20.50;62.63;101226.98;108342;1276;60548;-79
2022/07/13 04:55:26;;;;;;;1.80;0.90;;;;;;;20.54;62.48;101230.48;108090;1276;75254;-79
2022/07/13 04:57:56;;;;;;;2.80;0.90;;;;;;;20.58;62.29;101227.80;107891;1277;70067;-80
2022/07/13 05:00:24;;;;;;;1.70;0.90;;;;;;;20.62;62.25;101226.41;107887;1276;73906;-80
2022/07/13 05:02:51;;;;;;;1.80;1.10;;;;;;;20.68;62.05;101232.92;107821;1278;63638;-80
2022/07/13 05:05:19;;;;;;;1.70;1.00;;;;;;;20.72;61.72;101231.10;107796;1278;60144;-79
2022/07/13 05:07:46;;;;;;;3.50;1.00;;;;;;;20.78;61.67;101232.66;107832;1277;76693;-80
2022/07/13 05:10:13;;;;;;;1.90;0.90;;;;;;;20.84;61.35;101230.39;108140;1277;71563;-79
2022/07/13 05:12:42;;;;;;;2.90;1.00;;;;;;;20.90;60.89;101223.56;107803;1277;72357;-79
2022/07/13 05:15:10;;;;;;;2.40;1.00;;;;;;;20.98;60.67;101219.42;108132;1277;60941;-79
2022/07/13 05:17:38;;;;;;;1.80;0.80;;;;;;;21.07;60.23;101208.83;108091;1277;59601;-79
2022/07/13 05:20:05;;;;;;;1.50;0.90;;;;;;;21.15;60.01;101210.27;108160;1277;75955;-79
2022/07/13 05:22:33;;;;;;;1.90;0.80;;;;;;;21.22;59.82;101213.14;107886;1276;71354;-80
2022/07/13 05:25:00;;;;;;;2.00;1.00;;;;;;;21.26;59.64;101211.02;107879;1276;74164;-80
2022/07/13 05:27:28;;;;;;;3.30;1.00;;;;;;;21.30;59.76;101209.11;108049;1277;62197;-79
2022/07/13 05:29:55;;;;;;;2.80;0.80;;;;;;;21.34;59.76;101203.92;108128;1276;60152;-79
2022/07/13 05:32:22;;;;;;;2.70;0.90;;;;;;;21.41;59.54;101203.63;107930;1277;74906;-79
2022/07/13 05:34:49;;;;;;;1.80;0.90;;;;;;;21.46;59.35;101201.70;108109;1276;73163;-79
2022/07/13 05:37:16;;;;;;;3.40;0.90;;;;;;;21.54;59.28;101187.30;107845;1277;72423;-79
2022/07/13 05:39:44;;;;;;;1.50;1.00;;;;;;;21.62;58.99;101182.50;108068;1276;60826;-79
2022/07/13 05:42:12;;;;;;;2.00;0.90;;;;;;;21.67;58.75;101177.76;107902;1277;60460;-79
2022/07/13 05:44:39;;;;;;;2.00;0.90;;;;;;;21.70;58.73;101179.93;107908;1277;76464;-79
2022/07/13 05:47:07;;;;;;;1.70;0.80;;;;;;;21.72;58.29;101183.48;107991;1275;71255;-79
2022/07/13 05:49:34;;;;;;;2.00;0.80;;;;;;;21.76;58.36;101182.20;107740;1277;74997;-78
2022/07/13 05:52:01;;;;;;;1.70;0.90;;;;;;;21.87;58.16;101185.32;108094;1276;62661;-78
2022/07/13 05:54:28;;;;;;;2.40;0.90;;;;;;;21.96;57.40;101191.52;108118;1277;60668;-79
2022/07/13 05:57:10;;;;;;;3.30;0.80;;;;;;;22.07;57.04;101187.60;108052;1276;75537;-79
2022/07/13 05:59:37;;;;;;;2.00;0.80;;;;;;;22.19;56.81;101183.31;108350;1277;71835;-79
2022/07/13 06:02:04;;;;;;;3.90;0.90;;;;;;;22.29;56.28;101186.66;108047;1276;73150;-79
2022/07/13 06:04:32;;;;;;;2.10;0.90;;;;;;;22.36;55.58;101188.91;108126;1277;59351;-80
2022/07/13 06:06:58;;;;;;;3.20;1.30;;;;;;;22.43;55.48;101189.90;108304;1276;60544;-79
2022/07/13 06:09:26;;;;;;;2.10;1.00;;;;;;;22.47;55.04;101184.67;108155;1276;74294;-79
2022/07/13 06:11:53;;;;;;;2.30;1.00;;;;;;;22.50;54.43;101187.45;108141;1277;71685;-79
2022/07/13 06:14:21;;;;;;;2.90;1.00;;;;;;;22.57;54.39;101187.13;108068;1277;74563;-78
2022/07/13 06:16:48;;;;;;;2.80;0.90;;;;;;;22.62;54.38;101187.20;108234;1277;62113;-79
2022/07/13 06:19:15;;;;;;;2.60;1.10;;;;;;;22.72;54.24;101185.60;108257;1276;62168;-79
2022/07/13 06:21:43;;;;;;;2.00;0.90;;;;;;;22.80;54.11;101181.75;108283;1277;74973;-79
2022/07/13 06:24:10;;;;;;;1.90;0.80;;;;;;;22.90;53.72;101177.31;108097;1277;71425;-79
2022/07/13 06:26:37;;;;;;;2.20;1.00;;;;;;;23.04;53.57;101181.36;108302;1276;74113;-79
2022/07/13 06:29:05;;;;;;;4.00;1.00;;;;;;;23.20;53.21;101183.66;108107;1277;61549;-79
2022/07/13 06:31:32;;;;;;;10.90;1.30;;;;;;;23.39;53.01;101185.61;108164;1277;60361;-79
2022/07/13 06:34:00;;;;;;;3.80;0.90;;;;;;;23.58;52.58;101181.98;108038;1277;75863;-79
2022/07/13 06:36:27;;;;;;;4.50;2.30;;;;;;;23.76;51.70;101179.98;108117;1277;71341;-79
2022/07/13 06:38:55;;;;;;;5.30;1.90;;;;;;;23.86;50.53;101182.48;108089;1277;73113;-80
2022/07/13 06:41:22;;;;;;;4.00;1.30;;;;;;;23.98;50.09;101180.06;108167;1277;60311;-80
2022/07/13 06:43:49;;;;;;;3.90;1.20;;;;;;;24.07;49.72;101175.10;108197;1276;60528;-79
2022/07/13 06:46:16;;;;;;;2.60;0.90;;;;;;;24.14;49.99;101172.52;108246;1276;76922;-80
2022/07/13 06:48:51;;;;;;;3.40;1.40;;;;;;;24.17;49.54;101164.16;108078;1277;72260;-79
2022/07/13 06:51:18;;;;;;;3.40;1.10;;;;;;;24.24;49.09;101163.42;108227;1277;72706;-79
2022/07/13 06:53:46;;;;;;;4.90;1.00;;;;;;;24.29;49.09;101160.06;108187;1276;60769;-79
2022/07/13 06:56:13;;;;;;;2.40;1.00;;;;;;;24.37;48.97;101152.34;108254;1276;61219;-79
2022/07/13 06:58:40;;;;;;;2.20;1.00;;;;;;;24.43;48.32;101147.52;108046;1277;76030;-80
2022/07/13 07:01:07;;;;;;;4.10;1.00;;;;;;;24.51;48.24;101145.55;108191;1277;71979;-79
2022/07/13 07:03:35;;;;;;;1.90;1.10;;;;;;;24.59;47.72;101151.98;108071;1276;73916;-79
2022/07/13 07:06:01;;;;;;;3.70;1.10;;;;;;;24.68;47.37;101159.27;108274;1276;60768;-79
2022/07/13 07:08:28;;;;;;;2.50;1.10;;;;;;;24.76;47.67;101155.38;108240;1277;60323;-79
2022/07/13 07:10:56;;;;;;;2.70;1.00;;;;;;;24.89;47.65;101152.44;108157;1276;76118;-79
2022/07/13 07:13:22;;;;;;;4.10;1.50;;;;;;;25.03;47.66;101153.30;107984;1277;72535;-79
2022/07/13 07:15:51;;;;;;;2.60;1.20;;;;;;;25.17;46.64;101151.02;108215;1276;73982;-79
2022/07/13 07:18:21;;;;;;;4.00;1.30;;;;;;;25.32;46.50;101147.60;107932;1277;61841;-78
2022/07/13 07:20:49;;;;;;;2.90;1.30;;;;;;;25.47;45.52;101149.42;108159;1277;62941;-79
2022/07/13 07:23:16;;;;;;;4.40;1.40;;;;;;;25.53;44.25;101143.80;108113;1277;76015;-79
2022/07/13 07:25:43;;;;;;;2.60;1.10;;;;;;;25.58;44.12;101144.48;107667;1278;72094;-79
2022/07/13 07:28:11;;;;;;;2.60;1.10;;;;;;;25.67;43.62;101142.67;108266;1276;75420;-79
2022/07/13 07:30:38;;;;;;;4.30;1.60;;;;;;;25.74;43.46;101137.70;107905;1276;61689;-79
2022/07/13 07:33:06;;;;;;;2.70;1.20;;;;;;;25.81;43.00;101134.63;108036;1277;60224;-79
2022/07/13 07:35:32;;;;;;;4.30;1.10;;;;;;;25.89;42.93;101129.13;108253;1276;76807;-79
2022/07/13 07:37:59;;;;;;;2.80;1.10;;;;;;;25.90;42.79;101128.92;107859;1277;71557;-79
2022/07/13 07:40:26;;;;;;;3.00;1.30;;;;;;;25.91;42.87;101126.38;108223;1276;72997;-78
2022/07/13 07:42:53;;;;;;;3.80;1.20;;;;;;;25.96;42.61;101129.87;108226;1276;62388;-79
2022/07/13 07:45:20;;;;;;;2.90;1.10;;;;;;;26.07;42.42;101126.80;108239;1276;61107;-79
2022/07/13 07:47:47;;;;;;;3.50;1.10;;;;;;;26.19;41.83;101126.39;108228;1276;73906;-80
2022/07/13 07:50:14;;;;;;;3.60;1.20;;;;;;;26.34;41.60;101119.08;108237;1277;72492;-80
2022/07/13 07:52:41;;;;;;;4.30;1.10;;;;;;;26.51;41.11;101117.35;108087;1277;73175;-79
2022/07/13 07:55:20;;;;;;;6.20;1.80;;;;;;;26.62;39.93;101119.55;108121;1277;60810;-79
2022/07/13 07:57:48;;;;;;;3.10;1.10;;;;;;;26.71;39.18;101117.86;108237;1277;61808;-80
2022/07/13 08:00:15;;;;;;;3.00;1.10;;;;;;;26.74;38.40;101117.31;107932;1278;74500;-79
2022/07/13 08:02:43;;;;;;;2.50;1.60;;;;;;;26.77;38.34;101112.25;108253;1276;72752;-79
2022/07/13 08:05:10;;;;;;;3.50;1.30;;;;;;;26.90;38.62;101106.85;108292;1277;74101;-79
2022/07/13 08:07:44;;;;;;;4.10;1.70;;;;;;;27.06;38.34;101106.23;108107;1277;60488;-78
2022/07/13 08:10:12;;;;;;;3.50;1.00;;;;;;;27.17;37.89;101108.55;108263;1276;60752;-79
2022/07/13 08:12:58;;;;;;;3.90;1.00;;;;;;;27.32;37.42;101106.84;108305;1276;74619;-79
2022/07/13 08:15:27;;;;;;;2.70;1.00;;;;;;;27.48;36.95;101103.39;108280;1277;72507;-79
2022/07/13 08:17:54;;;;;;;1.90;1.20;;;;;;;27.59;36.58;101101.39;108150;1276;72854;-78
2022/07/13 08:20:22;;;;;;;4.70;1.20;;;;;;;27.71;36.21;101104.33;108270;1276;60919;-78
2022/07/13 08:22:52;;;;;;;3.70;1.80;;;;;;;27.75;35.33;101102.23;108237;1276;61633;-79
2022/07/13 08:25:21;;;;;;;2.00;1.00;;;;;;;27.82;35.68;101097.97;108141;1277;75023;-79
2022/07/13 08:27:47;;;;;;;3.20;1.10;;;;;;;27.96;36.26;101096.93;108176;1276;72538;-79
2022/07/13 08:30:14;;;;;;;1.70;0.90;;;;;;;28.14;36.74;101096.64;108200;1277;74095;-79
2022/07/13 08:32:41;;;;;;;3.00;1.10;;;;;;;28.24;36.04;101097.28;108310;1274;60918;-79
2022/07/13 08:40:41;;;;;;;2.50;1.10;;;;;;;28.57;35.44;101094.38;108159;1277;71927;-79
2022/07/13 08:43:08;;;;;;;3.30;1.10;;;;;;;28.64;35.04;101093.61;107966;1277;74060;-79
2022/07/13 08:45:35;;;;;;;2.30;1.20;;;;;;;28.70;34.76;101092.69;108292;1276;60384;-78
2022/07/13 08:48:09;;;;;;;3.70;1.70;;;;;;;28.78;34.49;101091.77;108264;1277;60531;-79
2022/07/13 08:50:37;;;;;;;2.10;1.10;;;;;;;28.80;34.11;101090.14;108270;1276;76164;-80
2022/07/13 08:53:05;;;;;;;4.70;1.90;;;;;;;28.80;33.79;101088.71;108195;1276;72481;-79
2022/07/13 08:55:32;;;;;;;5.30;1.50;;;;;;;28.86;33.67;101085.87;108228;1276;72753;-79
2022/07/13 08:58:00;;;;;;;4.70;1.30;;;;;;;28.85;33.42;101084.17;108099;1277;61388;-79
2022/07/13 09:00:27;;;;;;;3.50;1.30;;;;;;;28.77;33.48;101087.86;108127;1277;59580;-79
2022/07/13 09:02:55;;;;;;;4.20;1.30;;;;;;;28.75;34.03;101087.02;108162;1277;74234;-79
2022/07/13 09:05:25;;;;;;;2.40;1.40;;;;;;;28.76;33.82;101087.98;108248;1276;70678;-80
2022/07/13 09:08:07;;;;;;;2.80;1.20;;;;;;;28.87;33.69;101082.58;108212;1276;73457;-80
2022/07/13 09:10:54;;;;;;;2.80;1.20;;;;;;;29.04;33.82;101081.75;108108;1277;60573;-80
2022/07/13 09:13:34;;;;;;;3.40;2.00;;;;;;;29.15;33.50;101082.42;108075;1277;60754;-79
2022/07/13 09:16:20;;;;;;;2.60;1.10;;;;;;;29.27;33.63;101081.08;108325;1277;75779;-80
2022/07/13 09:19:01;;;;;;;2.00;0.90;;;;;;;29.31;32.84;101074.73;108191;1276;71958;-81
2022/07/13 09:21:33;;;;;;;2.80;1.10;;;;;;;29.45;32.69;101075.77;108075;1276;73990;-81
2022/07/13 09:24:15;;;;;;;2.50;1.20;;;;;;;29.52;32.38;101070.98;107867;1277;59432;-80
2022/07/13 09:26:46;;;;;;;3.70;1.90;;;;;;;29.66;32.49;101065.27;107914;1275;64628;-80
2022/07/13 09:29:14;;;;;;;3.70;1.80;;;;;;;29.69;32.08;101062.07;108183;1276;76241;-80
2022/07/13 09:31:54;;;;;;;2.30;1.00;;;;;;;29.68;31.83;101066.79;108120;1277;71045;-79
2022/07/13 09:34:47;;;;;;;5.60;3.80;;;;;;;29.63;31.81;101068.60;108120;1276;75228;-80
2022/07/13 09:37:16;;;;;;;4.50;1.50;;;;;;;29.63;31.92;101071.23;108183;1277;59589;-78
2022/07/13 09:40:07;;;;;;;3.00;1.30;;;;;;;29.82;31.64;101061.95;108310;1276;59982;-80
2022/07/13 09:42:39;;;;;;;2.40;1.30;;;;;;;29.86;31.47;101056.59;107995;1277;76115;-80
2022/07/13 09:47:58;;;;;;;2.40;1.00;;;;;;;29.86;31.57;101051.47;108096;1276;75881;-80
2022/07/13 09:50:41;;;;;;;2.10;0.80;;;;;;;30.08;31.55;101048.61;108183;1277;59839;-82
2022/07/13 09:53:29;;;;;;;1.60;0.90;;;;;;;30.21;31.25;101039.20;108334;1276;60458;-80
2022/07/13 09:56:01;;;;;;;2.80;1.10;;;;;;;30.32;31.19;101040.20;108184;1277;74672;-80
2022/07/13 09:58:34;;;;;;;3.70;1.10;;;;;;;30.40;31.12;101034.64;108204;1277;70513;-80
2022/07/13 10:01:04;;;;;;;3.50;1.20;;;;;;;30.54;31.05;101037.19;108156;1277;72158;-80
2022/07/13 10:03:35;;;;;;;3.60;1.50;;;;;;;30.57;30.72;101033.95;108140;1277;60529;-80
2022/07/13 10:06:04;;;;;;;2.10;1.20;;;;;;;30.60;30.65;101035.21;108126;1276;60560;-80
2022/07/13 10:08:38;;;;;;;2.20;1.00;;;;;;;30.71;30.70;101036.55;108278;1277;76092;-81
2022/07/13 10:11:08;;;;;;;2.90;1.10;;;;;;;30.73;30.68;101033.32;108239;1276;70411;-80
2022/07/13 10:13:37;;;;;;;2.50;1.00;;;;;;;30.83;30.87;101034.30;108321;1276;72740;-80
2022/07/13 10:16:07;;;;;;;3.60;1.10;;;;;;;30.94;30.39;101034.05;108211;1277;59674;-80
2022/07/13 10:18:39;;;;;;;2.50;1.10;;;;;;;30.92;29.85;101031.07;108173;1276;60432;-80
2022/07/13 10:21:18;;;;;;;4.20;1.30;;;;;;;30.82;29.71;101036.33;108200;1277;76648;-79
2022/07/13 10:23:46;;;;;;;2.60;1.00;;;;;;;30.76;29.85;101031.64;108256;1276;71384;-79
2022/07/13 10:26:20;;;;;;;2.30;1.10;;;;;;;30.74;29.83;101031.78;108220;1276;74146;-79
2022/07/13 10:29:09;;;;;;;2.80;1.20;;;;;;;30.69;30.07;101030.79;108264;1277;61479;-79
2022/07/13 10:31:37;;;;;;;2.50;1.30;;;;;;;30.73;30.12;101030.55;107958;1277;59565;-79
2022/07/13 10:34:06;;;;;;;2.90;1.10;;;;;;;30.68;30.10;101029.16;108231;1276;75332;-79
2022/07/13 10:36:51;;;;;;;2.60;1.20;;;;;;;30.70;30.17;101020.02;108115;1276;73927;-81
2022/07/13 10:39:25;;;;;;;2.90;0.90;;;;;;;30.71;30.29;101015.13;108225;1276;73032;-79
2022/07/13 10:41:56;;;;;;;5.80;1.30;;;;;;;30.94;30.13;101011.85;108117;1277;63307;-80
2022/07/13 10:44:37;;;;;;;2.70;1.10;;;;;;;31.23;29.87;101010.49;108075;1277;60582;-79
2022/07/13 10:47:08;;;;;;;1.60;1.00;;;;;;;31.61;29.51;101023.78;108150;1277;76196;-80
2022/07/13 10:49:40;;;;;;;2.70;1.10;;;;;;;31.87;29.08;101007.35;108208;1276;71465;-82
2022/07/13 10:52:22;;;;;;;4.20;1.10;;;;;;;32.02;28.67;101012.88;108198;1276;74642;-80
2022/07/13 10:55:09;;;;;;;2.40;1.10;;;;;;;32.00;28.47;101003.35;108161;1276;60184;-81
2022/07/13 10:57:38;;;;;;;2.50;0.90;;;;;;;32.01;28.77;101012.05;108282;1276;61406;-80
2022/07/13 11:00:23;;;;;;;2.40;1.00;;;;;;;32.19;28.48;101007.50;108107;1276;76181;-81
2022/07/13 11:02:54;;;;;;;2.60;0.90;;;;;;;32.32;28.32;101003.77;108286;1276;71145;-80
2022/07/13 11:05:26;;;;;;;3.50;0.90;;;;;;;32.57;27.96;101005.98;108285;1277;74747;-79
2022/07/13 11:07:54;;;;;;;2.90;1.10;;;;;;;32.62;27.85;101001.84;108151;1277;60680;-80
2022/07/13 11:10:26;;;;;;;1.50;0.80;;;;;;;32.68;27.99;101004.70;108110;1277;60539;-79
2022/07/13 11:13:10;;;;;;;2.30;0.90;;;;;;;32.51;28.00;100999.20;107965;1276;75171;-80
2022/07/13 11:15:50;;;;;;;2.30;0.80;;;;;;;32.44;28.30;101007.41;108281;1276;71548;-79
2022/07/13 11:18:20;;;;;;;2.80;1.00;;;;;;;32.31;28.61;101004.56;108092;1276;73056;-80
2022/07/13 11:20:56;;;;;;;2.30;1.00;;;;;;;32.17;28.87;101007.88;108251;1276;61675;-79
2022/07/13 11:27:09;;;;;;;3.00;0.80;;;;;;;31.84;29.82;101001.32;108258;1276;74706;-79
2022/07/13 11:29:48;;;;;;;2.70;1.10;;;;;;;31.86;30.14;100995.17;107408;1284;71710;-79
2022/07/13 11:32:20;;;;;;;2.60;1.10;;;;;;;31.89;30.05;100986.39;107368;1284;71851;-79
2022/07/13 11:34:47;;;;;;;2.10;0.90;;;;;;;32.10;29.77;100980.59;107787;1277;62100;-80
2022/07/13 11:37:21;;;;;;;3.50;1.10;;;;;;;32.14;30.00;100979.70;108015;1277;61669;-80
2022/07/13 11:39:48;;;;;;;2.50;1.20;;;;;;;32.04;30.56;100977.54;108235;1275;78386;-80